Time;durP1;ratioP1;P1;durP2;ratioP2;P2;SDS_P1;SDS_P2;PMS_P1;PMS_P2;Temp;Humidity;BMP_temperature;BMP_pressure;BME280_temperature;BME280_humidity;BME280_pressure;Samples;Min_cycle;Max_cycle;Signal;HPM_P1;HPM_P2
2023/12/24 00:01:21;;;;;;;;;;;;;;;21.46;22.79;96625.25;4993893;28;1973;-75
2023/12/24 00:03:47;;;;;;;;;;;;;;;21.75;22.54;96616.16;4993854;28;1012;-74
2023/12/24 00:06:12;;;;;;;;;;;;;;;22.73;21.29;96613.59;4994146;28;1350;-74
2023/12/24 00:08:38;;;;;;;;;;;;;;;22.24;21.82;96617.00;4977793;28;1137;-74
2023/12/24 00:11:04;;;;;;;;;;;;;;;21.34;22.96;96620.56;4994190;28;1167;-74
2023/12/24 00:13:29;;;;;;;;;;;;;;;21.65;22.74;96620.28;5027041;28;1040;-74
2023/12/24 00:15:55;;;;;;;;;;;;;;;21.22;23.23;96636.44;5021548;28;979;-74
2023/12/24 00:18:20;;;;;;;;;;;;;;;22.17;22.42;96635.13;5038104;28;1054;-74
2023/12/24 00:20:46;;;;;;;;;;;;;;;22.72;21.43;96640.41;5039021;28;1914;-74
2023/12/24 00:23:11;;;;;;;;;;;;;;;22.47;21.76;96655.88;5039688;28;943;-74
2023/12/24 00:25:37;;;;;;;;;;;;;;;21.84;22.42;96647.25;5021766;28;933;-74
2023/12/24 00:28:03;;;;;;;;;;;;;;;21.37;23.33;96652.78;5021908;28;1104;-74
2023/12/24 00:30:29;;;;;;;;;;;;;;;21.84;22.39;96644.41;5021930;28;1317;-74
2023/12/24 00:32:59;;;;;;;;;;;;;;;21.68;22.76;96639.16;5037701;28;986;-75
2023/12/24 00:35:25;;;;;;;;;;;;;;;21.96;22.19;96644.69;5000553;28;1243;-75
2023/12/24 00:37:51;;;;;;;;;;;;;;;21.97;22.32;96641.38;4984454;28;904;-74
2023/12/24 00:40:16;;;;;;;;;;;;;;;22.06;22.27;96646.19;5016611;28;1266;-74
2023/12/24 00:42:42;;;;;;;;;;;;;;;21.91;22.37;96645.31;5000351;28;1906;-74
2023/12/24 00:45:09;;;;;;;;;;;;;;;21.91;22.23;96657.44;5000339;28;1107;-74
2023/12/24 00:47:36;;;;;;;;;;;;;;;21.97;22.28;96654.75;4984334;28;1347;-74
2023/12/24 00:50:02;;;;;;;;;;;;;;;22.11;21.92;96659.72;5000378;28;1140;-74
2023/12/24 00:52:27;;;;;;;;;;;;;;;22.21;21.59;96649.91;4984257;28;1114;-74
2023/12/24 00:54:53;;;;;;;;;;;;;;;22.05;21.96;96644.63;5000257;28;1022;-74
2023/12/24 00:57:19;;;;;;;;;;;;;;;21.69;22.56;96654.88;5016758;28;1092;-74
2023/12/24 00:59:44;;;;;;;;;;;;;;;21.89;21.97;96636.53;5000148;28;1354;-74
2023/12/24 01:02:10;;;;;;;;;;;;;;;21.54;22.60;96651.94;4984009;28;1907;-74
2023/12/24 01:04:35;;;;;;;;;;;;;;;21.72;22.15;96645.44;4999772;28;995;-75
2023/12/24 01:07:01;;;;;;;;;;;;;;;21.97;22.10;96644.22;5004112;28;1029;-75
2023/12/24 01:09:26;;;;;;;;;;;;;;;21.98;21.94;96656.31;5021135;28;1452;-75
2023/12/24 01:11:52;;;;;;;;;;;;;;;22.22;21.49;96648.63;5021122;28;883;-75
2023/12/24 01:14:17;;;;;;;;;;;;;;;21.88;21.73;96646.31;5020735;28;1092;-74
2023/12/24 01:16:43;;;;;;;;;;;;;;;21.72;21.96;96668.09;5037309;28;1327;-74
2023/12/24 01:19:08;;;;;;;;;;;;;;;21.77;21.98;96672.31;5020424;28;1002;-74
2023/12/24 01:21:34;;;;;;;;;;;;;;;21.95;21.83;96675.03;5012726;28;1902;-74
2023/12/24 01:23:59;;;;;;;;;;;;;;;21.55;22.06;96686.69;4995922;28;1336;-74
2023/12/24 01:26:25;;;;;;;;;;;;;;;21.87;21.99;96679.50;5012649;28;1122;-74
2023/12/24 01:28:51;;;;;;;;;;;;;;;21.63;22.03;96682.25;5012881;28;947;-74
2023/12/24 01:31:16;;;;;;;;;;;;;;;21.81;21.87;96687.06;4996430;28;1041;-75
2023/12/24 01:33:42;;;;;;;;;;;;;;;21.74;22.08;96676.88;4996519;28;1043;-74
2023/12/24 01:36:07;;;;;;;;;;;;;;;21.71;22.06;96683.50;5012553;28;1110;-74
2023/12/24 01:38:33;;;;;;;;;;;;;;;21.82;21.83;96669.59;4996040;28;1229;-74
2023/12/24 01:40:59;;;;;;;;;;;;;;;21.94;21.80;96679.16;4979811;28;2125;-74
2023/12/24 01:43:24;;;;;;;;;;;;;;;21.53;22.05;96694.88;4995822;28;1757;-74
2023/12/24 01:45:50;;;;;;;;;;;;;;;21.66;21.99;96691.84;4996262;28;1003;-74
2023/12/24 01:48:15;;;;;;;;;;;;;;;21.63;21.98;96687.91;5012274;28;1202;-74
2023/12/24 01:50:42;;;;;;;;;;;;;;;21.99;21.49;96686.22;4992699;28;1640;-74
2023/12/24 01:53:07;;;;;;;;;;;;;;;21.57;22.15;96678.50;4992593;28;1223;-75
2023/12/24 01:55:33;;;;;;;;;;;;;;;21.57;21.98;96676.47;4960415;28;1070;-74
2023/12/24 01:57:59;;;;;;;;;;;;;;;21.85;21.66;96671.47;5005687;28;1037;-74
2023/12/24 02:00:24;;;;;;;;;;;;;;;21.75;22.01;96681.25;5015314;28;1175;-75
2023/12/24 02:02:50;;;;;;;;;;;;;;;21.89;21.93;96698.84;5015355;28;1977;-74
2023/12/24 02:05:16;;;;;;;;;;;;;;;21.64;21.93;96700.81;5015273;28;1065;-75
2023/12/24 02:07:41;;;;;;;;;;;;;;;21.89;21.64;96696.00;5015349;28;1108;-74
2023/12/24 02:10:07;;;;;;;;;;;;;;;22.02;21.46;96707.88;5015032;28;937;-74
2023/12/24 02:12:34;;;;;;;;;;;;;;;21.94;21.88;96712.34;5015241;28;1199;-74
2023/12/24 02:14:59;;;;;;;;;;;;;;;21.77;22.04;96712.72;5015275;28;929;-74
2023/12/24 02:17:25;;;;;;;;;;;;;;;21.75;21.82;96723.72;5015243;28;1095;-74
2023/12/24 02:19:50;;;;;;;;;;;;;;;21.54;22.04;96714.19;5015191;28;1242;-74
2023/12/24 02:22:16;;;;;;;;;;;;;;;21.86;21.65;96723.22;5018933;28;1902;-74
2023/12/24 02:24:42;;;;;;;;;;;;;;;21.86;21.80;96723.22;5019767;28;1655;-74
2023/12/24 02:27:08;;;;;;;;;;;;;;;21.73;22.07;96731.94;5019467;28;1184;-74
2023/12/24 02:29:36;;;;;;;;;;;;;;;21.98;21.69;96738.47;5019312;28;1523;-74
2023/12/24 02:32:03;;;;;;;;;;;;;;;21.67;21.99;96744.38;5014805;28;923;-74
2023/12/24 02:34:28;;;;;;;;;;;;;;;21.97;21.65;96756.72;4997906;28;1429;-74
2023/12/24 02:36:54;;;;;;;;;;;;;;;21.73;22.02;96756.63;5014629;28;1232;-74
2023/12/24 02:39:19;;;;;;;;;;;;;;;21.99;21.61;96759.84;4998199;28;1036;-74
2023/12/24 02:41:45;;;;;;;;;;;;;;;21.95;21.57;96759.22;5014791;28;1973;-74
2023/12/24 02:44:10;;;;;;;;;;;;;;;22.04;21.81;96779.03;5014516;28;1123;-74
2023/12/24 02:46:36;;;;;;;;;;;;;;;21.80;21.94;96776.88;4998198;28;1137;-74
2023/12/24 02:49:01;;;;;;;;;;;;;;;21.72;21.89;96775.66;5014457;28;994;-74
2023/12/24 02:51:28;;;;;;;;;;;;;;;21.77;21.88;96783.50;5014467;28;949;-74
2023/12/24 02:53:53;;;;;;;;;;;;;;;21.83;22.09;96795.75;5014084;28;1069;-74
2023/12/24 02:56:18;;;;;;;;;;;;;;;21.81;21.95;96812.47;4998039;28;1041;-75
2023/12/24 02:58:44;;;;;;;;;;;;;;;22.07;21.81;96814.88;4998011;28;1132;-74
2023/12/24 03:01:10;;;;;;;;;;;;;;;21.98;21.82;96826.25;5014551;28;1902;-74
2023/12/24 03:03:35;;;;;;;;;;;;;;;21.78;21.90;96830.38;5012220;28;1044;-74
2023/12/24 03:06:01;;;;;;;;;;;;;;;21.83;21.93;96826.91;5034131;28;971;-74
2023/12/24 03:08:26;;;;;;;;;;;;;;;21.91;21.79;96846.41;5033925;28;981;-75
2023/12/24 03:10:52;;;;;;;;;;;;;;;21.85;21.75;96841.38;5017300;28;1250;-74
2023/12/24 03:13:17;;;;;;;;;;;;;;;21.94;21.78;96836.97;5000877;28;1040;-74
2023/12/24 03:15:43;;;;;;;;;;;;;;;21.70;22.03;96846.09;5017345;28;1223;-74
2023/12/24 03:18:09;;;;;;;;;;;;;;;22.08;21.54;96853.31;5033945;28;1164;-74
2023/12/24 03:20:35;;;;;;;;;;;;;;;21.55;22.22;96845.19;5033743;28;1111;-74
2023/12/24 03:23:00;;;;;;;;;;;;;;;21.84;21.99;96842.63;5034233;28;1976;-74
2023/12/24 03:25:26;;;;;;;;;;;;;;;21.51;22.43;96833.25;5031160;28;916;-75
2023/12/24 03:27:51;;;;;;;;;;;;;;;21.71;21.98;96842.03;5015041;28;953;-74
2023/12/24 03:30:17;;;;;;;;;;;;;;;21.93;21.67;96832.56;5015573;28;1264;-74
2023/12/24 03:32:43;;;;;;;;;;;;;;;21.89;21.72;96829.88;5015365;28;1161;-74
2023/12/24 03:35:08;;;;;;;;;;;;;;;21.94;21.57;96836.97;5015370;28;1150;-74
2023/12/24 03:37:34;;;;;;;;;;;;;;;21.70;21.89;96837.63;5014923;28;1101;-74
2023/12/24 03:39:59;;;;;;;;;;;;;;;21.93;21.46;96841.06;5015231;28;933;-75
2023/12/24 03:42:25;;;;;;;;;;;;;;;21.75;21.97;96836.97;5031237;28;1909;-74
2023/12/24 03:44:50;;;;;;;;;;;;;;;21.92;21.52;96839.50;5015243;28;898;-74
2023/12/24 03:47:16;;;;;;;;;;;;;;;21.90;21.52;96859.00;5034061;28;1055;-75
2023/12/24 03:49:41;;;;;;;;;;;;;;;21.73;22.02;96862.16;5019783;28;1095;-74
2023/12/24 03:52:07;;;;;;;;;;;;;;;21.47;22.35;96870.19;5019058;28;1059;-74
2023/12/24 03:54:32;;;;;;;;;;;;;;;21.70;21.86;96891.41;5018697;28;1121;-74
2023/12/24 03:56:58;;;;;;;;;;;;;;;21.07;21.99;96793.91;5019825;28;1117;-74
2023/12/24 03:59:24;;;;;;;;;;;;;;;21.95;21.52;96912.16;5018914;28;1234;-75
2023/12/24 04:01:49;;;;;;;;;;;;;;;21.81;21.60;96914.38;5017305;28;1906;-74
2023/12/24 04:04:15;;;;;;;;;;;;;;;21.70;22.10;96919.72;5001078;28;965;-74
2023/12/24 04:06:42;;;;;;;;;;;;;;;21.87;21.70;96917.38;5017551;28;1062;-74
2023/12/24 04:09:09;;;;;;;;;;;;;;;21.56;22.23;96926.03;5001334;28;953;-74
2023/12/24 04:11:34;;;;;;;;;;;;;;;21.69;21.85;96929.47;5001541;28;1262;-74
2023/12/24 04:14:00;;;;;;;;;;;;;;;21.94;21.90;96936.09;5001169;28;975;-74
2023/12/24 04:16:25;;;;;;;;;;;;;;;21.76;21.82;96923.53;5001032;28;1112;-74
2023/12/24 04:18:51;;;;;;;;;;;;;;;21.76;21.94;96937.69;5017508;28;1097;-74
2023/12/24 04:21:17;;;;;;;;;;;;;;;21.81;21.65;96941.91;5000786;28;1980;-74
2023/12/24 04:23:42;;;;;;;;;;;;;;;21.91;21.90;96956.84;5000814;28;1064;-74
2023/12/24 04:26:08;;;;;;;;;;;;;;;22.11;21.66;96960.00;5017154;28;1229;-74
2023/12/24 04:28:33;;;;;;;;;;;;;;;21.65;21.98;96965.66;5000957;28;1152;-74
2023/12/24 04:31:00;;;;;;;;;;;;;;;21.74;21.83;96968.50;5016998;28;1432;-74
2023/12/24 04:33:26;;;;;;;;;;;;;;;21.72;22.03;96973.84;5013394;28;978;-74
2023/12/24 04:35:52;;;;;;;;;;;;;;;21.90;21.50;96983.59;5018223;28;1238;-74
2023/12/24 04:38:19;;;;;;;;;;;;;;;21.59;21.92;97001.50;5036644;28;1124;-74
2023/12/24 04:40:44;;;;;;;;;;;;;;;21.80;22.09;96997.75;5020294;28;1989;-74
2023/12/24 04:43:10;;;;;;;;;;;;;;;21.90;21.75;97006.25;5003903;28;1140;-74
2023/12/24 04:45:36;;;;;;;;;;;;;;;21.38;22.36;97022.19;5004014;28;1114;-75
2023/12/24 04:48:03;;;;;;;;;;;;;;;21.76;22.15;97018.97;5003670;28;1160;-74
2023/12/24 04:50:29;;;;;;;;;;;;;;;21.79;21.74;97027.31;5003835;28;1138;-74
2023/12/24 04:52:55;;;;;;;;;;;;;;;21.79;21.97;97024.50;5003557;28;1182;-74
2023/12/24 04:55:20;;;;;;;;;;;;;;;21.95;21.53;97033.94;5003657;28;1180;-74
2023/12/24 04:57:46;;;;;;;;;;;;;;;21.75;22.09;97040.84;5018933;28;1216;-74
2023/12/24 05:00:12;;;;;;;;;;;;;;;21.91;21.90;97030.47;5036535;28;945;-74
2023/12/24 05:02:38;;;;;;;;;;;;;;;21.81;21.67;97044.66;5019571;28;1906;-75
2023/12/24 05:05:03;;;;;;;;;;;;;;;21.56;22.35;97050.56;5019924;28;1033;-75
2023/12/24 05:07:29;;;;;;;;;;;;;;;21.51;22.34;97054.00;5020224;28;1013;-75
2023/12/24 05:09:55;;;;;;;;;;;;;;;21.79;21.88;97052.81;5000962;28;1334;-75
2023/12/24 05:12:20;;;;;;;;;;;;;;;21.82;22.06;97065.25;5017689;28;1119;-75
2023/12/24 05:14:46;;;;;;;;;;;;;;;21.99;21.44;97060.88;5017754;28;1125;-75
2023/12/24 05:17:11;;;;;;;;;;;;;;;21.90;21.79;97060.06;5017357;28;1118;-75
2023/12/24 05:19:37;;;;;;;;;;;;;;;21.83;21.76;97067.59;5017241;28;1058;-75
2023/12/24 05:22:03;;;;;;;;;;;;;;;21.87;21.87;97058.19;5017180;28;1985;-75
2023/12/24 05:24:28;;;;;;;;;;;;;;;21.85;21.75;97062.25;5017275;28;1236;-76
2023/12/24 05:26:54;;;;;;;;;;;;;;;21.61;22.20;97063.31;5016959;28;930;-76
2023/12/24 05:29:20;;;;;;;;;;;;;;;21.85;21.60;97067.91;5015919;28;855;-75
2023/12/24 05:31:45;;;;;;;;;;;;;;;21.63;21.84;97061.59;5015762;28;799;-75
2023/12/24 05:34:11;;;;;;;;;;;;;;;21.79;21.92;97069.81;4983302;28;1162;-76
2023/12/24 05:36:37;;;;;;;;;;;;;;;21.68;21.82;97075.13;4999762;28;1154;-75
2023/12/24 05:39:03;;;;;;;;;;;;;;;21.62;21.79;97085.50;4999345;28;992;-76
2023/12/24 05:41:29;;;;;;;;;;;;;;;21.63;21.91;97092.72;4983211;28;1898;-75
2023/12/24 05:43:54;;;;;;;;;;;;;;;21.87;21.61;97092.16;4976621;28;1171;-75
2023/12/24 05:46:23;;;;;;;;;;;;;;;21.94;21.57;97098.31;4976363;28;1046;-75
2023/12/24 05:48:48;;;;;;;;;;;;;;;21.96;21.30;97106.31;4944549;28;1337;-74
2023/12/24 05:51:14;;;;;;;;;;;;;;;21.90;21.46;97108.22;4944828;28;832;-75
2023/12/24 05:53:39;;;;;;;;;;;;;;;21.81;21.67;97112.63;4960115;28;934;-75
2023/12/24 05:56:05;;;;;;;;;;;;;;;21.91;21.41;97121.09;4960461;28;960;-76
2023/12/24 05:58:30;;;;;;;;;;;;;;;21.93;21.40;97129.94;4944610;28;966;-75
2023/12/24 06:00:56;;;;;;;;;;;;;;;21.93;21.62;97129.94;4990866;28;2018;-75
2023/12/24 06:03:21;;;;;;;;;;;;;;;21.98;21.28;97143.50;4995982;28;1012;-75
2023/12/24 06:05:47;;;;;;;;;;;;;;;21.66;21.78;97144.78;4979391;28;810;-75
2023/12/24 06:08:18;;;;;;;;;;;;;;;21.63;21.81;97140.06;4979579;28;966;-75
2023/12/24 06:10:43;;;;;;;;;;;;;;;21.80;21.87;97142.16;4979609;28;802;-75
2023/12/24 06:13:09;;;;;;;;;;;;;;;21.69;21.71;97138.97;4963372;28;1154;-75
2023/12/24 06:15:35;;;;;;;;;;;;;;;21.65;21.93;97144.00;5007607;28;926;-75
2023/12/24 06:18:01;;;;;;;;;;;;;;;21.78;21.54;97135.41;5015828;28;839;-75
2023/12/24 06:20:29;;;;;;;;;;;;;;;21.84;21.69;97134.31;5016432;28;794;-75
2023/12/24 06:22:55;;;;;;;;;;;;;;;21.83;21.55;97127.06;5032687;28;1969;-75
2023/12/24 06:25:20;;;;;;;;;;;;;;;21.96;21.36;97135.44;5017188;28;899;-75
2023/12/24 06:27:46;;;;;;;;;;;;;;;21.84;21.82;97142.81;5032585;28;1078;-75
2023/12/24 06:30:12;;;;;;;;;;;;;;;21.39;22.06;97142.63;5038028;28;1193;-75
2023/12/24 06:32:41;;;;;;;;;;;;;;;21.54;21.97;97137.97;5054571;28;1417;-75
2023/12/24 06:35:07;;;;;;;;;;;;;;;21.75;21.57;97139.94;5054642;28;995;-75
2023/12/24 06:37:33;;;;;;;;;;;;;;;21.60;21.79;97138.94;5054741;28;967;-75
2023/12/24 06:39:58;;;;;;;;;;;;;;;21.82;21.71;97136.84;5037884;28;947;-75
2023/12/24 06:42:24;;;;;;;;;;;;;;;21.63;21.78;97140.84;5037720;28;1909;-75
2023/12/24 06:44:49;;;;;;;;;;;;;;;21.59;21.96;97140.19;5037903;28;1132;-74
2023/12/24 06:47:15;;;;;;;;;;;;;;;21.92;21.59;97151.03;5054301;28;1258;-75
2023/12/24 06:49:44;;;;;;;;;;;;;;;21.71;21.64;97158.31;5021333;28;1241;-75
2023/12/24 06:52:10;;;;;;;;;;;;;;;21.75;21.56;97159.75;5054578;28;1272;-75
2023/12/24 06:54:35;;;;;;;;;;;;;;;21.79;21.61;97166.06;5037566;28;1038;-74
2023/12/24 06:57:01;;;;;;;;;;;;;;;21.49;21.97;97166.88;5037557;28;946;-75
2023/12/24 06:59:26;;;;;;;;;;;;;;;21.84;21.67;97171.13;5037438;28;792;-75
2023/12/24 07:01:52;;;;;;;;;;;;;;;21.68;21.87;97173.44;5054191;28;1909;-75
2023/12/24 07:04:17;;;;;;;;;;;;;;;21.68;21.73;97154.41;5053915;28;1254;-75
2023/12/24 07:06:43;;;;;;;;;;;;;;;21.66;21.61;97162.59;5049564;28;954;-75
2023/12/24 07:09:08;;;;;;;;;;;;;;;21.52;21.89;97169.59;5016436;28;894;-75
2023/12/24 07:11:34;;;;;;;;;;;;;;;21.66;22.10;97168.25;5016803;28;1177;-75
2023/12/24 07:13:59;;;;;;;;;;;;;;;21.55;21.94;97173.53;5031496;28;999;-75
2023/12/24 07:16:25;;;;;;;;;;;;;;;21.59;21.86;97162.84;5026301;28;1010;-76
2023/12/24 07:18:50;;;;;;;;;;;;;;;21.83;21.74;97183.72;5034909;28;986;-75
2023/12/24 07:21:16;;;;;;;;;;;;;;;21.82;21.56;97182.16;5035554;28;1906;-75
2023/12/24 07:23:44;;;;;;;;;;;;;;;21.72;21.96;97179.75;5051679;28;1174;-75
2023/12/24 07:26:10;;;;;;;;;;;;;;;21.81;21.79;97182.59;5051930;28;1624;-75
2023/12/24 07:28:35;;;;;;;;;;;;;;;21.71;21.74;97186.63;5034644;28;961;-75
2023/12/24 07:31:01;;;;;;;;;;;;;;;22.00;21.22;97180.63;5036374;28;920;-75
2023/12/24 07:33:27;;;;;;;;;;;;;;;21.86;21.52;97187.66;5035206;28;924;-75
2023/12/24 07:35:52;;;;;;;;;;;;;;;21.93;21.75;97192.25;5034693;28;989;-75
2023/12/24 07:38:18;;;;;;;;;;;;;;;21.99;21.41;97201.72;5035884;28;906;-76
2023/12/24 07:40:43;;;;;;;;;;;;;;;21.66;21.81;97202.22;5033835;28;1021;-75
2023/12/24 07:43:09;;;;;;;;;;;;;;;21.70;21.84;97208.50;5018124;28;1973;-75
2023/12/24 07:45:34;;;;;;;;;;;;;;;21.65;22.12;97209.09;5017540;28;1236;-75
2023/12/24 07:48:01;;;;;;;;;;;;;;;21.67;21.96;97234.94;5050126;28;1057;-75
2023/12/24 07:50:26;;;;;;;;;;;;;;;21.59;22.01;97231.56;5021404;28;883;-75
2023/12/24 07:52:52;;;;;;;;;;;;;;;21.85;21.95;97232.16;5055711;28;949;-75
2023/12/24 07:55:18;;;;;;;;;;;;;;;21.82;21.63;97233.13;5038468;28;964;-75
2023/12/24 07:57:43;;;;;;;;;;;;;;;21.88;21.67;97241.00;5038041;28;964;-75
2023/12/24 08:00:09;;;;;;;;;;;;;;;21.87;21.79;97239.44;5056054;28;1015;-75
2023/12/24 08:02:38;;;;;;;;;;;;;;;21.72;21.83;97233.53;5038103;28;1906;-75
2023/12/24 08:05:03;;;;;;;;;;;;;;;21.47;22.08;97246.63;5055539;28;910;-75
2023/12/24 08:07:29;;;;;;;;;;;;;;;21.68;21.98;97244.22;5038051;28;959;-75
2023/12/24 08:09:56;;;;;;;;;;;;;;;21.67;22.03;97240.59;5037996;28;1005;-76
2023/12/24 08:12:21;;;;;;;;;;;;;;;21.78;21.88;97246.63;5021795;28;1032;-75
2023/12/24 08:14:47;;;;;;;;;;;;;;;21.62;22.01;97249.69;5056063;28;908;-75
2023/12/24 08:17:13;;;;;;;;;;;;;;;21.78;21.87;97249.47;5037990;28;922;-73
2023/12/24 08:19:38;;;;;;;;;;;;;;;21.69;21.96;97246.56;5037858;28;963;-73
2023/12/24 08:22:03;;;;;;;;;;;;;;;21.82;21.83;97244.44;5038179;28;1906;-73
2023/12/24 08:24:29;;;;;;;;;;;;;;;21.94;22.02;97239.94;5055606;28;1258;-73
2023/12/24 08:26:55;;;;;;;;;;;;;;;22.04;21.74;97255.72;5021029;28;1015;-73
2023/12/24 08:29:20;;;;;;;;;;;;;;;21.70;22.02;97248.16;5037817;28;1138;-73
2023/12/24 08:31:46;;;;;;;;;;;;;;;21.70;21.99;97253.81;5037902;28;1038;-73
2023/12/24 08:34:11;;;;;;;;;;;;;;;21.81;22.18;97254.19;5057500;28;1259;-73
2023/12/24 08:36:37;;;;;;;;;;;;;;;21.75;21.91;97256.03;5059268;28;892;-73
2023/12/24 08:39:02;;;;;;;;;;;;;;;21.91;21.80;97245.72;5024725;28;958;-73
2023/12/24 08:41:28;;;;;;;;;;;;;;;21.90;21.87;97244.16;5041334;28;1898;-73
2023/12/24 08:43:53;;;;;;;;;;;;;;;21.88;22.15;97263.66;5041246;28;1127;-73
2023/12/24 08:46:19;;;;;;;;;;;;;;;21.87;22.17;97262.09;5058473;28;1024;-73
2023/12/24 08:48:44;;;;;;;;;;;;;;;22.13;21.78;97262.72;5024751;28;1148;-73
2023/12/24 08:51:10;;;;;;;;;;;;;;;22.01;22.08;97255.84;5024524;28;1291;-73
2023/12/24 08:53:35;;;;;;;;;;;;;;;21.79;22.36;97264.41;5059237;28;1108;-73
2023/12/24 08:56:01;;;;;;;;;;;;;;;21.77;22.31;97267.72;5040720;28;1151;-73
2023/12/24 08:58:27;;;;;;;;;;;;;;;21.78;22.11;97265.66;5024604;28;1435;-73
2023/12/24 09:00:52;;;;;;;;;;;;;;;21.75;22.38;97256.03;5040556;28;1976;-73
2023/12/24 09:03:18;;;;;;;;;;;;;;;22.00;21.89;97262.75;5024125;28;934;-73
2023/12/24 09:05:43;;;;;;;;;;;;;;;21.90;22.03;97278.94;5040904;28;994;-73
2023/12/24 09:08:09;;;;;;;;;;;;;;;22.01;22.13;97284.16;5040527;28;1014;-72
2023/12/24 09:10:34;;;;;;;;;;;;;;;21.81;22.16;97270.38;5023379;28;1067;-72
2023/12/24 09:13:00;;;;;;;;;;;;;;;21.75;22.40;97273.03;5040394;28;1174;-72
2023/12/24 09:15:25;;;;;;;;;;;;;;;21.89;22.01;97293.56;5040788;28;1135;-73
2023/12/24 09:17:51;;;;;;;;;;;;;;;21.79;22.30;97272.91;5040324;28;897;-72
2023/12/24 09:20:17;;;;;;;;;;;;;;;21.65;22.27;97268.56;5024308;28;1100;-73
2023/12/24 09:22:42;;;;;;;;;;;;;;;21.75;22.50;97273.03;5058212;28;1906;-73
2023/12/24 09:25:08;;;;;;;;;;;;;;;21.75;22.22;97275.84;5058326;28;894;-72
2023/12/24 09:27:33;;;;;;;;;;;;;;;21.84;22.35;97275.91;5006867;28;1332;-72
2023/12/24 09:30:04;;;;;;;;;;;;;;;21.62;22.71;97274.38;5040404;28;975;-73
2023/12/24 09:32:32;;;;;;;;;;;;;;;21.86;22.22;97272.59;5057896;28;915;-73
2023/12/24 09:34:58;;;;;;;;;;;;;;;22.05;22.30;97273.50;5058154;28;1002;-73
2023/12/24 09:37:26;;;;;;;;;;;;;;;21.89;22.18;97276.56;5023641;28;1148;-73
2023/12/24 09:39:52;;;;;;;;;;;;;;;21.98;22.24;97282.28;5039861;28;950;-73
2023/12/24 09:42:18;;;;;;;;;;;;;;;22.08;21.82;97278.25;5040481;28;1902;-73
2023/12/24 09:44:44;;;;;;;;;;;;;;;22.13;21.96;97285.38;5039537;28;942;-73
2023/12/24 09:47:10;;;;;;;;;;;;;;;21.52;22.74;97290.50;5040048;28;1215;-73
2023/12/24 09:49:35;;;;;;;;;;;;;;;21.94;22.25;97295.78;5040185;28;975;-73
2023/12/24 09:52:01;;;;;;;;;;;;;;;21.74;22.52;97294.09;5023490;28;1084;-73
2023/12/24 09:54:26;;;;;;;;;;;;;;;21.92;22.16;97298.31;5039946;28;928;-72
2023/12/24 09:56:52;;;;;;;;;;;;;;;21.84;22.31;97287.25;5039727;28;939;-73
2023/12/24 09:59:17;;;;;;;;;;;;;;;21.81;22.52;97299.50;5022422;28;984;-72
2023/12/24 10:01:46;;;;;;;;;;;;;;;21.78;22.71;97293.97;5057481;28;1913;-73
2023/12/24 10:04:15;;;;;;;;;;;;;;;21.85;22.59;97302.97;5023170;28;1243;-72
2023/12/24 10:06:53;;;;;;;;;;;;;;;21.50;22.90;97295.84;5023473;28;1072;-74
2023/12/24 10:09:19;;;;;;;;;;;;;;;21.71;22.44;97300.72;5023105;28;889;-75
2023/12/24 10:11:44;;;;;;;;;;;;;;;21.64;22.70;97289.63;5039292;28;922;-75
2023/12/24 10:14:10;;;;;;;;;;;;;;;21.72;22.54;97293.78;5039551;28;1094;-75
2023/12/24 10:16:43;;;;;;;;;;;;;;;21.90;22.38;97295.13;5039091;28;1463;-75
2023/12/24 10:19:09;;;;;;;;;;;;;;;21.74;22.67;97282.00;5038914;28;1841;-75
2023/12/24 10:21:34;;;;;;;;;;;;;;;21.75;22.56;97278.69;5039318;28;1985;-75
2023/12/24 10:24:03;;;;;;;;;;;;;;;21.75;22.44;97273.03;5057150;28;1036;-75
2023/12/24 10:26:29;;;;;;;;;;;;;;;21.97;22.39;97275.84;5039279;28;990;-75
2023/12/24 10:28:54;;;;;;;;;;;;;;;22.03;22.39;97267.50;5057015;28;909;-75
2023/12/24 10:31:20;;;;;;;;;;;;;;;22.00;22.37;97265.59;5056898;28;1014;-75
2023/12/24 10:33:45;;;;;;;;;;;;;;;21.74;22.63;97259.34;5056529;28;890;-75
2023/12/24 10:36:11;;;;;;;;;;;;;;;21.95;22.32;97246.38;5056988;28;863;-75
2023/12/24 10:38:37;;;;;;;;;;;;;;;21.94;22.17;97247.63;5039061;28;946;-75
2023/12/24 10:41:02;;;;;;;;;;;;;;;21.96;22.31;97240.25;5056458;28;1906;-75
2023/12/24 10:43:28;;;;;;;;;;;;;;;21.45;23.05;97242.66;5056599;28;909;-75
2023/12/24 10:45:53;;;;;;;;;;;;;;;21.55;22.62;97241.44;5022178;28;1209;-75
2023/12/24 10:48:19;;;;;;;;;;;;;;;21.30;23.04;97245.25;5014302;28;1437;-75
2023/12/24 10:50:45;;;;;;;;;;;;;;;21.43;22.74;97233.84;5014296;28;926;-75
2023/12/24 10:53:10;;;;;;;;;;;;;;;21.76;22.25;97229.31;4955875;29;1217;-74
2023/12/24 10:55:36;;;;;;;;;;;;;;;21.70;22.36;97231.16;4939258;29;1004;-75
2023/12/24 10:58:05;;;;;;;;;;;;;;;21.89;22.23;97225.59;4955716;29;909;-75
2023/12/24 11:00:31;;;;;;;;;;;;;;;21.75;22.45;97222.06;4940173;29;1297;-74
2023/12/24 11:02:56;;;;;;;;;;;;;;;21.96;22.35;97217.59;4917315;29;1908;-75
2023/12/24 11:05:40;;;;;;;;;;;;;;;21.42;23.01;97215.28;4918119;29;960;-74
2023/12/24 11:08:26;;;;;;;;;;;;;;;21.68;22.57;97205.34;4902095;29;933;-74
2023/12/24 11:10:52;;;;;;;;;;;;;;;21.97;22.23;97215.56;4917505;29;951;-75
2023/12/24 11:13:30;;;;;;;;;;;;;;;21.77;22.53;97213.13;4902201;29;1153;-74
2023/12/24 11:15:55;;;;;;;;;;;;;;;21.92;22.02;97202.78;4917721;29;1090;-74
2023/12/24 11:18:38;;;;;;;;;;;;;;;21.90;22.20;97207.34;4921287;29;1046;-74
2023/12/24 11:21:04;;;;;;;;;;;;;;;21.78;22.13;97215.47;4955675;28;1902;-74
2023/12/24 11:23:29;;;;;;;;;;;;;;;21.92;22.17;97224.66;4939845;29;1070;-74
2023/12/24 11:25:55;;;;;;;;;;;;;;;21.95;22.08;97240.72;4936427;29;1030;-74
2023/12/24 11:28:23;;;;;;;;;;;;;;;21.58;22.47;97247.00;4936400;29;943;-75
2023/12/24 11:30:49;;;;;;;;;;;;;;;21.61;22.25;97245.28;4943158;28;1050;-74
2023/12/24 11:33:26;;;;;;;;;;;;;;;21.83;22.00;97243.19;4967221;28;1220;-74
2023/12/24 11:35:52;;;;;;;;;;;;;;;21.75;21.98;97244.72;5014008;28;998;-74
2023/12/24 11:38:33;;;;;;;;;;;;;;;21.76;21.86;97251.97;5014017;28;957;-74
2023/12/24 11:41:11;;;;;;;;;;;;;;;21.79;21.97;97255.91;5013731;28;1984;-74
2023/12/24 11:43:37;;;;;;;;;;;;;;;21.75;22.30;97261.69;5013986;28;1150;-75
2023/12/24 11:46:06;;;;;;;;;;;;;;;21.79;22.07;97261.56;4997330;28;954;-74
2023/12/24 11:48:35;;;;;;;;;;;;;;;22.04;21.88;97263.41;5013593;28;1505;-75
2023/12/24 11:51:02;;;;;;;;;;;;;;;21.97;21.69;97263.72;4997164;28;985;-74
2023/12/24 11:53:28;;;;;;;;;;;;;;;21.98;21.71;97279.44;4999781;28;1266;-74
2023/12/24 11:56:13;;;;;;;;;;;;;;;21.98;21.68;97287.94;5017080;28;884;-74
2023/12/24 11:58:39;;;;;;;;;;;;;;;21.96;21.84;97290.44;5038260;28;923;-74
2023/12/24 12:01:05;;;;;;;;;;;;;;;21.76;21.63;97302.94;5038211;28;1909;-75
2023/12/24 12:03:31;;;;;;;;;;;;;;;21.60;21.85;97305.97;5055738;28;963;-74
2023/12/24 12:05:56;;;;;;;;;;;;;;;22.02;21.42;97308.41;5013796;28;967;-75
2023/12/24 12:08:22;;;;;;;;;;;;;;;21.66;22.01;97309.81;5000210;28;980;-75
2023/12/24 12:10:47;;;;;;;;;;;;;;;21.78;21.68;97308.13;5000797;28;921;-74
2023/12/24 12:13:13;;;;;;;;;;;;;;;21.99;21.75;97298.81;5001178;28;1087;-74
2023/12/24 12:15:38;;;;;;;;;;;;;;;21.89;21.68;97299.22;5000977;28;990;-74
2023/12/24 12:18:04;;;;;;;;;;;;;;;21.83;22.09;97288.50;5000831;28;1135;-75
2023/12/24 12:20:30;;;;;;;;;;;;;;;22.07;21.78;97290.81;4981397;28;1064;-75
2023/12/24 12:22:56;;;;;;;;;;;;;;;21.92;21.65;97298.31;4965194;28;1998;-74
2023/12/24 12:25:21;;;;;;;;;;;;;;;21.85;22.01;97305.81;4981607;28;920;-74
2023/12/24 12:27:47;;;;;;;;;;;;;;;21.92;21.93;97309.63;4997481;28;1058;-75
2023/12/24 12:30:12;;;;;;;;;;;;;;;22.03;21.67;97310.00;4981383;28;941;-75
2023/12/24 12:32:38;;;;;;;;;;;;;;;21.80;22.02;97320.56;4981545;28;1074;-74
2023/12/24 12:35:04;;;;;;;;;;;;;;;22.00;21.69;97322.25;4997383;28;992;-74
2023/12/24 12:37:29;;;;;;;;;;;;;;;21.94;21.73;97324.13;5010160;28;1178;-74
2023/12/24 12:39:55;;;;;;;;;;;;;;;21.95;21.90;97320.03;5036882;28;908;-74
2023/12/24 12:42:20;;;;;;;;;;;;;;;22.03;21.51;97318.50;5020452;28;1980;-74
2023/12/24 12:44:46;;;;;;;;;;;;;;;21.97;21.89;97326.03;5036567;28;1057;-74
2023/12/24 12:47:12;;;;;;;;;;;;;;;22.07;21.65;97334.13;5036528;28;1366;-74
2023/12/24 12:49:38;;;;;;;;;;;;;;;22.00;21.44;97331.53;5036462;28;935;-74
2023/12/24 12:52:04;;;;;;;;;;;;;;;21.92;21.60;97329.47;5040622;28;978;-75
2023/12/24 12:54:30;;;;;;;;;;;;;;;21.87;21.90;97349.88;5040775;28;980;-74